WetterOnline ( https://www.wetteronline.ch )

Wetter aktuell Mühldorf

Aktuelles Wetter: Mühldorf am Inn (410m)

6-stündlich | Neueste Meldungen
Ortszeit Temperatur Wetter
Mo, 18.11. 19:00 2.2° C bedeckt
Mo, 18.11. 13:00 8.0° C wolkenlos
Mo, 18.11. 7:00 3.0° C bedeckt
Mo, 18.11. 1:00 2.3° C fast wolkenlos
So, 17.11. 19:00 3.9° C bedeckt
So, 17.11. 13:00 6.2° C bedeckt
So, 17.11. 7:00 3.5° C leichter Regen
So, 17.11. 1:00 4.0° C bedeckt
Ortszeit Temperatur Wetter
Di, 19.11. 0:30 1.9° C bedeckt
Di, 19.11. 0:20 1.9° C bedeckt
Di, 19.11. 0:10 1.9° C bedeckt
Di, 19.11. 0:00 1.6° C bewölkt
Mo, 18.11. 23:50 1.6° C bewölkt
Mo, 18.11. 23:40 1.8° C bewölkt
Mo, 18.11. 23:30 1.7° C bewölkt
Mo, 18.11. 23:00 1.1° C bedeckt
Ortszeit Relative Feuchte Sichtweite
Mo, 18.11. 19:00 94% 19 km
Mo, 18.11. 13:00 61% 45 km
Mo, 18.11. 7:00 91% 22 km
Mo, 18.11. 1:00 94% 10 km
So, 17.11. 19:00 100% 1.4 km
So, 17.11. 13:00 92% 6 km
So, 17.11. 7:00 98% 3.0 km
So, 17.11. 1:00 93% 6 km
Ortszeit Relative Feuchte Sichtweite
Di, 19.11. 0:30 99% 12 km
Di, 19.11. 0:20 99% -
Di, 19.11. 0:10 97% -
Di, 19.11. 0:00 98% 12 km
Mo, 18.11. 23:50 98% -
Mo, 18.11. 23:40 99% -
Mo, 18.11. 23:30 98% 12 km
Mo, 18.11. 23:00 99% 13 km
Ortszeit Niederschlagsmenge Niederschlagsart
Mo, 18.11. 19:00 0.0 l/m2 in 12 Std. -
Mo, 18.11. 13:00 0.0 l/m2 in 6 Std. -
Mo, 18.11. 7:00 0.1 l/m2 in 12 Std. Regen
Mo, 18.11. 1:00 0.0 l/m2 in 6 Std. -
So, 17.11. 19:00 0.1 l/m2 in 12 Std. -
So, 17.11. 13:00 0.1 l/m2 in 6 Std. Regen
So, 17.11. 7:00 0.3 l/m2 in 12 Std. Regen
So, 17.11. 1:00 0.0 l/m2 in 6 Std. -
Ortszeit Niederschlagsmenge Niederschlagsart
Di, 19.11. 0:30 0.0 l/m2 in 1 Std. -
Di, 19.11. 0:20 keine Meldung -
Di, 19.11. 0:10 keine Meldung -
Di, 19.11. 0:00 0.0 l/m2 in 1 Std. -
Mo, 18.11. 23:50 keine Meldung -
Mo, 18.11. 23:40 keine Meldung -
Mo, 18.11. 23:30 0.0 l/m2 in 1 Std. -
Mo, 18.11. 23:00 0.0 l/m2 in 1 Std. -
Ortszeit Stärke Spitze Richtung
km/h Bft. km/h Grad Sektor
Mo, 18.11. 19:00 4 1 14 80° O
Mo, 18.11. 13:00 11 2 20 250° W
Mo, 18.11. 7:00 4 1 18 270° W
Mo, 18.11. 1:00 13 3 28 280° W
So, 17.11. 19:00 4 1 22 230° SW
So, 17.11. 13:00 7 2 11 70° O
So, 17.11. 7:00 4 1 22 330° NW
So, 17.11. 1:00 7 2 14 30° NO
Ortszeit Stärke Spitze Richtung
km/h Bft. km/h Grad Sektor
Di, 19.11. 0:30 4 1 4 40° NO
Di, 19.11. 0:20 4 1 - 40° NO
Di, 19.11. 0:10 4 1 - 70° O
Di, 19.11. 0:00 4 1 7 70° O
Mo, 18.11. 23:50 4 1 - 70° O
Mo, 18.11. 23:40 6 1 - 100° O
Mo, 18.11. 23:30 4 1 7 110° O
Mo, 18.11. 23:00 4 1 4 350° N
Ortszeit Untergrenze Bedeckung Gattung
total tief tief mittel hoch
Mo, 18.11. 19:00 990 m 8/8 8/8 - - -
Mo, 18.11. 13:00 - 0/8 0/8 - - -
Mo, 18.11. 7:00 930 m 8/8 8/8 - - -
Mo, 18.11. 1:00 6600 m 1/8 2/8 - - -
So, 17.11. 19:00 5400 m 8/8 8/8 - - -
So, 17.11. 13:00 180 m 8/8 8/8 - - -
So, 17.11. 7:00 150 m 8/8 8/8 - - -
So, 17.11. 1:00 180 m 8/8 8/8 - - -
Ortszeit Bedeckungsgrad in Achtel und Wolkenuntergrenze
Di, 19.11. 0:30 8(1050m)
Di, 19.11. 0:20 8(1050m)
Di, 19.11. 0:10 8(1080m) 8(3300m)
Di, 19.11. 0:00 7(1110m) 8(3300m) 8(3900m)
Mo, 18.11. 23:50 7(1110m) 8(3300m) 8(3900m)
Mo, 18.11. 23:40 7(1110m) 8(3000m) 8(3900m)
Mo, 18.11. 23:30 5(1140m) 8(3000m) 8(3600m)
Mo, 18.11. 23:00 8(3000m) 8(3000m)
Ortszeit Luftdruck NN (hPa) Tendenz (hPa in 3 Std.)
Mo, 18.11. 19:00 1016 + 2,0
Mo, 18.11. 13:00 1011 + 0,8
Mo, 18.11. 7:00 1009 + 1,3
Mo, 18.11. 1:00 1006 + 1,1
So, 17.11. 19:00 1002 - 0,1
So, 17.11. 13:00 1004 - 1,9
So, 17.11. 7:00 1008 - 2,2
So, 17.11. 1:00 1013 - 1,1
Ortszeit Luftdruck NN (hPa) Tendenz (hPa in 3 Std.)
Di, 19.11. 0:30 1019 + 1,3
Di, 19.11. 0:20 1019 keine Meldung
Di, 19.11. 0:10 1019 keine Meldung
Di, 19.11. 0:00 1019 + 1,8
Mo, 18.11. 23:50 1019 keine Meldung
Mo, 18.11. 23:40 1019 keine Meldung
Mo, 18.11. 23:30 1019 + 2,0
Mo, 18.11. 23:00 1018 + 1,8
Ortszeit Schneehöhe (cm)
Mo, 18.11. 19:00 0
Mo, 18.11. 13:00 0
Mo, 18.11. 7:00 0
Mo, 18.11. 1:00 0
So, 17.11. 19:00 0
So, 17.11. 13:00 0
So, 17.11. 7:00 0
So, 17.11. 1:00 0
Ortszeit Schneehöhe (cm)
Di, 19.11. 0:30 0
Di, 19.11. 0:20 0
Di, 19.11. 0:10 0
Di, 19.11. 0:00 0
Mo, 18.11. 23:50 0
Mo, 18.11. 23:40 0
Mo, 18.11. 23:30 0
Mo, 18.11. 23:00 0
Link zu dieser Seite / Seite empfehlen

Das Wetter in ...